createdAt,value
2023-04-18T00:00:10.808Z,100273.16
2023-04-18T00:02:39.915Z,100275.16
2023-04-18T00:05:08.211Z,100273.97
2023-04-18T00:07:35.693Z,100271.44
2023-04-18T00:10:03.992Z,100273.00
2023-04-18T00:12:34.227Z,100268.09
2023-04-18T00:15:03.036Z,100278.22
2023-04-18T00:17:32.832Z,100272.69
2023-04-18T00:20:02.298Z,100280.41
2023-04-18T00:22:29.390Z,100279.06
2023-04-18T00:24:56.521Z,100276.31
2023-04-18T00:27:23.915Z,100276.69
2023-04-18T00:29:51.361Z,100283.16
2023-04-18T00:32:19.700Z,100278.66
2023-04-18T00:34:47.164Z,100271.25
2023-04-18T00:37:14.341Z,100283.44
2023-04-18T00:39:42.343Z,100289.59
2023-04-18T00:42:09.747Z,100283.56
2023-04-18T00:44:36.997Z,100280.44
2023-04-18T00:47:04.273Z,100276.69
2023-04-18T00:49:32.170Z,100272.91
2023-04-18T00:52:00.287Z,100277.09
2023-04-18T00:54:27.797Z,100275.31
2023-04-18T00:56:55.383Z,100277.41
2023-04-18T00:59:22.641Z,100270.00
2023-04-18T01:01:49.920Z,100272.41
2023-04-18T01:04:17.598Z,100268.44
2023-04-18T01:06:45.744Z,100266.03
2023-04-18T01:09:13.969Z,100258.75
2023-04-18T01:11:41.739Z,100269.38
2023-04-18T01:14:09.521Z,100273.12
2023-04-18T01:16:40.079Z,100273.56
2023-04-18T01:19:07.586Z,100274.19
2023-04-18T01:21:36.110Z,100272.00
2023-04-18T01:24:12.020Z,100269.81
2023-04-18T01:26:43.720Z,100276.69
2023-04-18T01:29:11.495Z,100273.53
2023-04-18T01:31:39.607Z,100274.37
2023-04-18T01:34:08.286Z,100276.91
2023-04-18T01:36:36.361Z,100276.88
2023-04-18T01:39:03.831Z,100287.31
2023-04-18T01:41:32.838Z,100280.03
2023-04-18T01:44:00.634Z,100275.03
2023-04-18T01:46:28.499Z,100277.41
2023-04-18T01:48:56.910Z,100277.91
2023-04-18T01:51:24.115Z,100277.47
2023-04-18T01:53:53.955Z,100287.06
2023-04-18T01:56:21.539Z,100283.75
2023-04-18T01:58:48.765Z,100276.56
2023-04-18T02:01:15.942Z,100275.63
2023-04-18T02:03:43.578Z,100281.28
2023-04-18T02:06:13.130Z,100274.34
2023-04-18T02:08:40.734Z,100277.47
2023-04-18T02:11:08.235Z,100279.16
2023-04-18T02:13:35.521Z,100286.03
2023-04-18T02:16:12.662Z,100278.09
2023-04-18T02:18:42.554Z,100283.31
2023-04-18T02:21:11.294Z,100280.19
2023-04-18T02:23:38.564Z,100281.97
2023-04-18T02:26:05.825Z,100286.25
2023-04-18T02:28:33.345Z,100287.59
2023-04-18T02:31:03.512Z,100283.12
2023-04-18T02:33:30.722Z,100283.53
2023-04-18T02:35:58.177Z,100283.44
2023-04-18T02:38:25.263Z,100286.88
2023-04-18T02:40:52.421Z,100290.44
2023-04-18T02:43:20.802Z,100285.97
2023-04-18T02:45:47.995Z,100293.28
2023-04-18T02:48:15.346Z,100297.75
2023-04-18T02:50:44.281Z,100300.16
2023-04-18T02:53:11.400Z,100299.41
2023-04-18T02:55:39.111Z,100303.38
2023-04-18T02:58:06.784Z,100304.63
2023-04-18T03:00:36.782Z,100310.50
2023-04-18T03:03:05.679Z,100323.41
2023-04-18T03:05:33.822Z,100317.53
2023-04-18T03:08:01.690Z,100311.63
2023-04-18T03:10:29.314Z,100320.69
2023-04-18T03:12:57.156Z,100323.12
2023-04-18T03:15:24.886Z,100314.87
2023-04-18T03:17:52.716Z,100317.25
2023-04-18T03:20:20.942Z,100315.69
2023-04-18T03:22:48.103Z,100322.88
2023-04-18T03:25:17.021Z,100323.00
2023-04-18T03:27:44.760Z,100314.66
2023-04-18T03:30:13.398Z,100323.41
2023-04-18T03:32:42.270Z,100318.84
2023-04-18T03:35:09.836Z,100317.34
2023-04-18T03:37:37.207Z,100312.56
2023-04-18T03:40:08.169Z,100315.06
2023-04-18T03:42:36.290Z,100319.84
2023-04-18T03:45:03.709Z,100315.34
2023-04-18T03:47:31.946Z,100306.75
2023-04-18T03:49:59.564Z,100304.84
2023-04-18T03:52:28.021Z,100313.06
2023-04-18T03:54:57.450Z,100316.06
2023-04-18T03:57:25.039Z,100311.72
2023-04-18T03:59:52.308Z,100314.87
2023-04-18T04:02:19.586Z,100313.00
2023-04-18T04:04:47.300Z,100320.97
2023-04-18T04:07:14.707Z,100317.44
2023-04-18T04:09:42.221Z,100315.47
2023-04-18T04:12:09.673Z,100324.28
2023-04-18T04:14:37.199Z,100324.16
2023-04-18T04:17:04.562Z,100323.41
2023-04-18T04:19:32.253Z,100324.00
2023-04-18T04:22:01.261Z,100337.19
2023-04-18T04:24:29.160Z,100330.94
2023-04-18T04:26:57.205Z,100331.87
2023-04-18T04:29:24.571Z,100335.75
2023-04-18T04:31:52.467Z,100337.62
2023-04-18T04:34:21.659Z,100333.78
2023-04-18T04:36:49.116Z,100344.09
2023-04-18T04:39:17.445Z,100342.59
2023-04-18T04:41:47.145Z,100343.00
2023-04-18T04:44:17.667Z,100343.75
2023-04-18T04:46:45.230Z,100354.56
2023-04-18T04:49:14.369Z,100348.00
2023-04-18T04:51:42.998Z,100358.75
2023-04-18T04:54:10.855Z,100352.97
2023-04-18T04:56:38.462Z,100355.56
2023-04-18T04:59:05.997Z,100350.47
2023-04-18T05:01:33.672Z,100359.31
2023-04-18T05:04:01.206Z,100360.06
2023-04-18T05:06:28.438Z,100358.22
2023-04-18T05:08:57.513Z,100366.84
2023-04-18T05:11:24.947Z,100358.16
2023-04-18T05:13:52.135Z,100368.53
2023-04-18T05:16:19.513Z,100366.50
2023-04-18T05:18:47.035Z,100364.50
2023-04-18T05:21:14.191Z,100361.28
2023-04-18T05:23:41.447Z,100369.00
2023-04-18T05:26:08.830Z,100372.06
2023-04-18T05:28:35.946Z,100371.25
2023-04-18T05:31:03.233Z,100377.75
2023-04-18T05:33:31.557Z,100376.25
2023-04-18T05:35:59.116Z,100380.94
2023-04-18T05:38:26.363Z,100381.66
2023-04-18T05:40:55.692Z,100383.59
2023-04-18T05:43:23.411Z,100385.19
2023-04-18T05:45:52.752Z,100381.47
2023-04-18T05:48:21.644Z,100389.09
2023-04-18T05:50:48.853Z,100388.12
2023-04-18T05:53:15.995Z,100392.94
2023-04-18T05:55:43.814Z,100392.09
2023-04-18T05:58:10.942Z,100394.41
2023-04-18T06:00:38.096Z,100389.91
2023-04-18T06:03:07.186Z,100395.59
2023-04-18T06:05:35.841Z,100393.69
2023-04-18T06:08:03.632Z,100401.09
2023-04-18T06:10:31.113Z,100404.13
2023-04-18T06:12:58.315Z,100398.94
2023-04-18T06:15:25.769Z,100396.97
2023-04-18T06:17:53.267Z,100398.66
2023-04-18T06:20:20.551Z,100406.34
2023-04-18T06:22:47.679Z,100401.72
2023-04-18T06:25:16.139Z,100409.03
2023-04-18T06:27:43.326Z,100403.41
2023-04-18T06:30:10.983Z,100412.22
2023-04-18T06:32:38.611Z,100410.44
2023-04-18T06:35:06.532Z,100413.91
2023-04-18T06:37:33.757Z,100412.44
2023-04-18T06:40:01.256Z,100412.59
2023-04-18T06:42:28.470Z,100410.94
2023-04-18T06:44:55.886Z,100410.37
2023-04-18T06:47:23.926Z,100418.53
2023-04-18T06:49:51.060Z,100419.28
2023-04-18T06:52:18.189Z,100415.31
2023-04-18T06:54:45.880Z,100423.75
2023-04-18T06:57:13.100Z,100412.28
2023-04-18T06:59:41.408Z,100421.56
2023-04-18T07:02:08.945Z,100419.06
2023-04-18T07:04:36.264Z,100426.34
2023-04-18T07:07:05.214Z,100427.59
2023-04-18T07:09:32.957Z,100424.09
2023-04-18T07:12:00.242Z,100430.56
2023-04-18T07:14:28.455Z,100429.66
2023-04-18T07:16:57.642Z,100431.78
2023-04-18T07:19:24.856Z,100417.00
2023-04-18T07:21:52.064Z,100424.75
2023-04-18T07:24:19.479Z,100432.59
2023-04-18T07:26:46.612Z,100433.72
2023-04-18T07:29:13.743Z,100432.66
2023-04-18T07:31:41.214Z,100431.44
2023-04-18T07:34:09.168Z,100437.19
2023-04-18T07:36:36.445Z,100431.19
2023-04-18T07:39:03.890Z,100430.47
2023-04-18T07:41:31.057Z,100431.72
2023-04-18T07:43:58.195Z,100433.94
2023-04-18T07:46:25.803Z,100438.69
2023-04-18T07:48:53.074Z,100446.22
2023-04-18T07:51:21.595Z,100442.50
2023-04-18T07:53:48.960Z,100444.50
2023-04-18T07:56:16.332Z,100446.78
2023-04-18T07:58:43.472Z,100453.47
2023-04-18T08:01:14.148Z,100448.81
2023-04-18T08:03:42.040Z,100439.91
2023-04-18T08:06:09.822Z,100452.50
2023-04-18T08:08:37.007Z,100445.62
2023-04-18T08:11:04.455Z,100441.66
2023-04-18T08:13:31.623Z,100444.59
2023-04-18T08:15:59.825Z,100452.03
2023-04-18T08:18:27.384Z,100456.19
2023-04-18T08:20:54.852Z,100455.75
2023-04-18T08:23:22.054Z,100460.13
2023-04-18T08:25:49.554Z,100462.94
2023-04-18T08:28:17.063Z,100461.63
2023-04-18T08:30:48.673Z,100461.47
2023-04-18T08:33:16.245Z,100467.81
2023-04-18T08:35:43.499Z,100461.69
2023-04-18T08:38:10.842Z,100463.78
2023-04-18T08:40:38.597Z,100465.62
2023-04-18T08:43:09.374Z,100466.22
2023-04-18T08:45:37.005Z,100465.34
2023-04-18T08:48:04.676Z,100461.09
2023-04-18T08:50:32.377Z,100465.28
2023-04-18T08:53:04.056Z,100455.94
2023-04-18T08:55:33.590Z,100462.84
2023-04-18T08:58:01.355Z,100468.22
2023-04-18T09:00:29.323Z,100461.50
2023-04-18T09:02:57.633Z,100460.72
2023-04-18T09:05:26.900Z,100461.63
2023-04-18T09:07:56.175Z,100464.44
2023-04-18T09:10:32.729Z,100473.53
2023-04-18T09:13:03.109Z,100472.25
2023-04-18T09:15:31.197Z,100474.81
2023-04-18T09:18:01.654Z,100474.25
2023-04-18T09:20:41.369Z,100469.06
2023-04-18T09:23:11.127Z,100466.44
2023-04-18T09:25:44.238Z,100471.84
2023-04-18T09:28:23.215Z,100477.28
2023-04-18T09:30:54.377Z,100482.84
2023-04-18T09:33:32.970Z,100478.69
2023-04-18T09:36:27.262Z,100483.00
2023-04-18T09:38:56.545Z,100474.44
2023-04-18T09:41:24.418Z,100468.91
2023-04-18T09:44:15.727Z,100457.69
2023-04-18T09:46:47.049Z,100457.87
2023-04-18T09:49:16.062Z,100467.72
2023-04-18T09:51:44.708Z,100461.16
2023-04-18T09:54:16.368Z,100464.72
2023-04-18T09:56:44.982Z,100464.50
2023-04-18T09:59:13.225Z,100461.25
2023-04-18T10:01:41.090Z,100460.59
2023-04-18T10:04:09.821Z,100458.78
2023-04-18T10:06:39.786Z,100459.06
2023-04-18T10:09:08.737Z,100460.41
2023-04-18T10:11:36.529Z,100461.13
2023-04-18T10:14:07.843Z,100458.00
2023-04-18T10:16:36.396Z,100458.13
2023-04-18T10:19:24.696Z,100462.78
2023-04-18T10:21:56.797Z,100457.59
2023-04-18T10:24:56.297Z,100461.84
2023-04-18T10:27:48.774Z,100460.22
2023-04-18T10:30:16.972Z,100456.00
2023-04-18T10:32:47.724Z,100455.06
2023-04-18T10:35:15.304Z,100457.72
2023-04-18T10:37:52.229Z,100467.34
2023-04-18T10:40:33.704Z,100457.69
2023-04-18T10:43:01.214Z,100459.09
2023-04-18T10:45:31.343Z,100458.47
2023-04-18T10:48:29.909Z,100455.28
2023-04-18T10:51:15.760Z,100456.22
2023-04-18T10:53:53.235Z,100445.53
2023-04-18T10:56:20.683Z,100447.72
2023-04-18T10:58:51.133Z,100450.06
2023-04-18T11:01:31.672Z,100447.00
2023-04-18T11:04:00.427Z,100448.53
2023-04-18T11:06:28.484Z,100444.28
2023-04-18T11:09:12.486Z,100442.50
2023-04-18T11:11:40.200Z,100441.53
2023-04-18T11:14:07.594Z,100447.78
2023-04-18T11:16:35.254Z,100450.94
2023-04-18T11:19:20.205Z,100450.69
2023-04-18T11:21:47.521Z,100450.50
2023-04-18T11:24:34.297Z,100451.59
2023-04-18T11:27:03.905Z,100448.84
2023-04-18T11:29:31.447Z,100450.53
2023-04-18T11:31:58.939Z,100459.53
2023-04-18T11:34:32.786Z,100461.78
2023-04-18T11:37:00.353Z,100462.25
2023-04-18T11:39:27.927Z,100468.22
2023-04-18T11:41:57.141Z,100457.34
2023-04-18T11:44:25.191Z,100460.69
2023-04-18T11:46:53.271Z,100465.88
2023-04-18T11:49:31.316Z,100462.03
2023-04-18T11:51:59.644Z,100455.59
2023-04-18T11:54:43.566Z,100451.78
2023-04-18T11:57:22.292Z,100451.50
2023-04-18T11:59:54.340Z,100455.16
2023-04-18T12:02:23.166Z,100449.47
2023-04-18T12:04:58.364Z,100447.94
2023-04-18T12:07:40.296Z,100444.03
2023-04-18T12:10:19.894Z,100441.25
2023-04-18T12:12:51.838Z,100442.78
2023-04-18T12:15:19.961Z,100443.94
2023-04-18T12:17:53.830Z,100445.44
2023-04-18T12:20:24.863Z,100444.22
2023-04-18T12:22:54.204Z,100440.81
2023-04-18T12:25:26.216Z,100433.63
2023-04-18T12:27:53.941Z,100439.88
2023-04-18T12:30:27.624Z,100431.31
2023-04-18T12:32:56.661Z,100433.75
2023-04-18T12:35:24.497Z,100434.06
2023-04-18T12:37:52.986Z,100435.78
2023-04-18T12:40:21.909Z,100440.63
2023-04-18T12:42:50.681Z,100442.53
2023-04-18T12:45:18.969Z,100440.91
2023-04-18T12:47:48.592Z,100442.25
2023-04-18T12:50:21.271Z,100445.84
2023-04-18T12:52:49.266Z,100438.41
2023-04-18T12:55:16.866Z,100441.53
2023-04-18T12:57:44.386Z,100435.50
2023-04-18T13:00:13.510Z,100425.59
2023-04-18T13:02:44.131Z,100423.06
2023-04-18T13:05:13.685Z,100426.94
2023-04-18T13:07:42.683Z,100425.62
2023-04-18T13:10:11.863Z,100429.53
2023-04-18T13:12:40.134Z,100435.50
2023-04-18T13:15:08.728Z,100424.78
2023-04-18T13:17:36.942Z,100428.25
2023-04-18T13:20:10.575Z,100440.37
2023-04-18T13:22:38.960Z,100431.31
2023-04-18T13:25:08.191Z,100446.63
2023-04-18T13:27:35.328Z,100433.94
2023-04-18T13:30:02.890Z,100432.75
2023-04-18T13:32:30.112Z,100442.91
2023-04-18T13:34:57.285Z,100429.66
2023-04-18T13:37:25.028Z,100440.47
2023-04-18T13:39:52.268Z,100442.72
2023-04-18T13:42:20.099Z,100437.75
2023-04-18T13:44:47.944Z,100440.53
2023-04-18T13:47:15.048Z,100439.75
2023-04-18T13:49:42.256Z,100439.78
2023-04-18T13:52:09.641Z,100439.88
2023-04-18T13:54:37.662Z,100440.13
2023-04-18T13:57:06.996Z,100439.03
2023-04-18T13:59:34.448Z,100437.44
2023-04-18T14:02:01.674Z,100434.03
2023-04-18T14:04:29.493Z,100430.31
2023-04-18T14:06:56.853Z,100428.69
2023-04-18T14:09:24.081Z,100426.97
2023-04-18T14:11:51.669Z,100425.69
2023-04-18T14:14:18.858Z,100420.94
2023-04-18T14:16:46.152Z,100421.09
2023-04-18T14:19:13.811Z,100428.38
2023-04-18T14:21:41.239Z,100422.19
2023-04-18T14:24:08.647Z,100427.72
2023-04-18T14:26:36.050Z,100423.81
2023-04-18T14:29:05.090Z,100420.69
2023-04-18T14:31:32.278Z,100422.91
2023-04-18T14:33:59.845Z,100435.84
2023-04-18T14:36:27.727Z,100424.97
2023-04-18T14:38:55.182Z,100432.03
2023-04-18T14:41:22.654Z,100421.50
2023-04-18T14:43:49.749Z,100424.56
2023-04-18T14:46:17.059Z,100433.09
2023-04-18T14:48:46.876Z,100433.94
2023-04-18T14:51:16.306Z,100431.88
2023-04-18T14:53:44.536Z,100425.81
2023-04-18T14:56:12.011Z,100428.69
2023-04-18T14:58:39.124Z,100425.38
2023-04-18T15:01:06.345Z,100428.34
2023-04-18T15:03:34.219Z,100428.25
2023-04-18T15:06:01.676Z,100428.56
2023-04-18T15:08:30.763Z,100427.72
2023-04-18T15:10:59.850Z,100431.03
2023-04-18T15:13:27.007Z,100429.38
2023-04-18T15:15:56.897Z,100429.44
2023-04-18T15:18:24.420Z,100423.72
2023-04-18T15:20:51.843Z,100421.59
2023-04-18T15:23:19.101Z,100418.50
2023-04-18T15:25:46.613Z,100412.38
2023-04-18T15:28:14.014Z,100411.03
2023-04-18T15:30:41.166Z,100423.03
2023-04-18T15:33:08.847Z,100418.03
2023-04-18T15:35:36.164Z,100424.81
2023-04-18T15:38:03.454Z,100424.44
2023-04-18T15:40:32.906Z,100425.44
2023-04-18T15:43:00.204Z,100427.19
2023-04-18T15:45:27.346Z,100427.50
2023-04-18T15:47:54.868Z,100433.09
2023-04-18T15:50:23.613Z,100433.22
2023-04-18T15:52:50.807Z,100438.56
2023-04-18T15:55:18.276Z,100436.19
2023-04-18T15:57:45.415Z,100438.38
2023-04-18T16:00:16.354Z,100434.22
2023-04-18T16:02:44.569Z,100437.91
2023-04-18T16:05:12.929Z,100437.59
2023-04-18T16:07:41.333Z,100437.75
2023-04-18T16:10:10.315Z,100444.22
2023-04-18T16:12:39.025Z,100447.81
2023-04-18T16:15:08.402Z,100452.16
2023-04-18T16:17:37.069Z,100447.03
2023-04-18T16:20:06.258Z,100448.75
2023-04-18T16:22:33.624Z,100458.03
2023-04-18T16:25:01.033Z,100457.19
2023-04-18T16:27:28.507Z,100457.06
2023-04-18T16:29:55.838Z,100462.19
2023-04-18T16:32:23.251Z,100459.41
2023-04-18T16:34:50.409Z,100462.06
2023-04-18T16:37:17.603Z,100458.91
2023-04-18T16:39:45.121Z,100465.06
2023-04-18T16:42:14.877Z,100464.09
2023-04-18T16:44:44.703Z,100464.37
2023-04-18T16:47:12.199Z,100460.50
2023-04-18T16:49:39.454Z,100460.25
2023-04-18T16:52:06.687Z,100457.34
2023-04-18T16:54:34.170Z,100467.69
2023-04-18T16:57:01.728Z,100459.09
2023-04-18T16:59:28.909Z,100464.91
2023-04-18T17:01:56.503Z,100466.66
2023-04-18T17:04:26.782Z,100465.62
2023-04-18T17:06:54.101Z,100466.16
2023-04-18T17:09:21.678Z,100468.41
2023-04-18T17:11:49.028Z,100463.59
2023-04-18T17:14:17.438Z,100463.69
2023-04-18T17:16:44.978Z,100466.63
2023-04-18T17:19:12.369Z,100465.97
2023-04-18T17:21:39.619Z,100461.94
2023-04-18T17:24:07.698Z,100469.56
2023-04-18T17:26:36.015Z,100465.13
2023-04-18T17:29:04.348Z,100475.00
2023-04-18T17:31:32.508Z,100469.91
2023-04-18T17:34:00.351Z,100475.56
2023-04-18T17:36:27.794Z,100481.75
2023-04-18T17:38:56.115Z,100483.00
2023-04-18T17:41:23.277Z,100477.09
2023-04-18T17:43:53.344Z,100491.53
2023-04-18T17:46:20.955Z,100480.78
2023-04-18T17:48:48.623Z,100486.56
2023-04-18T17:51:16.540Z,100482.84
2023-04-18T17:53:44.074Z,100484.84
2023-04-18T17:56:11.434Z,100492.72
2023-04-18T17:58:39.488Z,100491.31
2023-04-18T18:01:17.597Z,100484.84
2023-04-18T18:03:45.643Z,100493.22
2023-04-18T18:06:14.206Z,100494.91
2023-04-18T18:08:43.018Z,100496.97
2023-04-18T18:11:10.789Z,100500.66
2023-04-18T18:13:39.080Z,100505.34
2023-04-18T18:16:07.074Z,100507.84
2023-04-18T18:18:35.056Z,100505.22
2023-04-18T18:21:02.375Z,100502.19
2023-04-18T18:23:29.673Z,100508.56
2023-04-18T18:25:57.191Z,100517.22
2023-04-18T18:28:24.549Z,100509.44
2023-04-18T18:30:51.906Z,100518.69
2023-04-18T18:33:19.631Z,100516.75
2023-04-18T18:35:46.806Z,100515.47
2023-04-18T18:38:14.056Z,100512.03
2023-04-18T18:40:41.486Z,100517.72
2023-04-18T18:43:08.615Z,100512.50
2023-04-18T18:45:35.749Z,100517.00
2023-04-18T18:48:03.975Z,100511.22
2023-04-18T18:50:31.191Z,100511.34
2023-04-18T18:52:58.329Z,100507.69
2023-04-18T18:55:25.802Z,100514.78
2023-04-18T18:57:53.284Z,100518.97
2023-04-18T19:00:20.536Z,100519.06
2023-04-18T19:02:48.289Z,100516.00
2023-04-18T19:05:16.889Z,100512.38
2023-04-18T19:07:44.079Z,100515.50
2023-04-18T19:10:11.628Z,100514.28
2023-04-18T19:12:38.837Z,100517.53
2023-04-18T19:15:06.767Z,100522.03
2023-04-18T19:17:34.485Z,100523.81
2023-04-18T19:20:01.950Z,100526.41
2023-04-18T19:22:29.882Z,100522.78
2023-04-18T19:24:58.459Z,100537.22
2023-04-18T19:27:25.645Z,100538.56
2023-04-18T19:29:52.826Z,100552.56
2023-04-18T19:32:20.639Z,100547.56
2023-04-18T19:34:47.926Z,100550.66
2023-04-18T19:37:15.090Z,100563.97
2023-04-18T19:39:42.557Z,100567.47
2023-04-18T19:42:10.334Z,100559.50
2023-04-18T19:44:37.521Z,100568.69
2023-04-18T19:47:05.049Z,100566.78
2023-04-18T19:49:32.281Z,100583.75
2023-04-18T19:51:59.472Z,100585.41
2023-04-18T19:54:27.006Z,100582.19
2023-04-18T19:56:54.212Z,100584.59
2023-04-18T19:59:21.410Z,100577.66
2023-04-18T20:01:48.861Z,100577.81
2023-04-18T20:04:16.464Z,100586.37
2023-04-18T20:06:44.570Z,100579.72
2023-04-18T20:09:16.679Z,100582.13
2023-04-18T20:11:44.599Z,100576.59
2023-04-18T20:14:11.860Z,100584.56
2023-04-18T20:16:39.192Z,100583.50
2023-04-18T20:19:06.649Z,100592.69
2023-04-18T20:21:33.927Z,100587.44
2023-04-18T20:24:01.075Z,100585.75
2023-04-18T20:26:28.542Z,100589.50
2023-04-18T20:28:55.648Z,100590.22
2023-04-18T20:31:23.482Z,100587.28
2023-04-18T20:33:50.904Z,100583.66
2023-04-18T20:36:18.316Z,100593.75
2023-04-18T20:38:45.401Z,100594.47
2023-04-18T20:41:18.296Z,100589.44
2023-04-18T20:43:46.874Z,100590.78
2023-04-18T20:46:14.523Z,100594.72
2023-04-18T20:48:44.480Z,100584.69
2023-04-18T20:51:11.614Z,100583.13
2023-04-18T20:53:38.998Z,100583.81
2023-04-18T20:56:06.302Z,100584.75
2023-04-18T20:58:33.431Z,100580.59
2023-04-18T21:01:00.968Z,100574.12
2023-04-18T21:03:28.286Z,100571.91
2023-04-18T21:05:56.042Z,100591.16
2023-04-18T21:08:23.449Z,100585.41
2023-04-18T21:10:50.563Z,100576.59
2023-04-18T21:13:17.838Z,100580.78
2023-04-18T21:15:45.295Z,100585.03
2023-04-18T21:18:12.549Z,100574.16
2023-04-18T21:20:39.799Z,100575.34
2023-04-18T21:23:07.229Z,100581.41
2023-04-18T21:25:34.427Z,100583.63
2023-04-18T21:28:02.354Z,100579.00
2023-04-18T21:30:29.742Z,100579.00
2023-04-18T21:32:56.934Z,100576.69
2023-04-18T21:35:24.924Z,100579.28
2023-04-18T21:37:52.578Z,100580.22
2023-04-18T21:40:19.806Z,100569.16
2023-04-18T21:42:48.168Z,100573.75
2023-04-18T21:45:17.734Z,100570.31
2023-04-18T21:47:44.951Z,100578.16
2023-04-18T21:50:12.281Z,100575.84
2023-04-18T21:52:39.768Z,100571.97
2023-04-18T21:55:07.201Z,100570.31
2023-04-18T21:57:34.331Z,100571.50
2023-04-18T22:00:01.739Z,100568.75
2023-04-18T22:02:39.336Z,100573.22
2023-04-18T22:05:07.747Z,100572.75
2023-04-18T22:07:40.796Z,100576.66
2023-04-18T22:10:18.391Z,100569.63
2023-04-18T22:12:45.797Z,100569.91
2023-04-18T22:15:12.921Z,100560.94
2023-04-18T22:17:41.679Z,100570.66
2023-04-18T22:20:10.735Z,100570.56
2023-04-18T22:22:37.892Z,100558.84
2023-04-18T22:25:07.268Z,100560.25
2023-04-18T22:27:34.402Z,100566.75
2023-04-18T22:30:01.565Z,100564.06
2023-04-18T22:32:29.071Z,100559.13
2023-04-18T22:34:56.203Z,100554.22
2023-04-18T22:37:23.435Z,100553.50
2023-04-18T22:39:50.838Z,100548.81
2023-04-18T22:42:17.976Z,100548.38
2023-04-18T22:44:45.091Z,100553.38
2023-04-18T22:47:12.643Z,100547.06
2023-04-18T22:49:40.382Z,100550.66
2023-04-18T22:52:08.299Z,100541.63
2023-04-18T22:54:39.382Z,100537.03
2023-04-18T22:57:06.481Z,100535.56
2023-04-18T22:59:34.021Z,100539.28
2023-04-18T23:02:01.598Z,100529.34
2023-04-18T23:04:31.935Z,100533.59
2023-04-18T23:06:59.113Z,100528.75
2023-04-18T23:09:27.092Z,100523.53
2023-04-18T23:11:54.209Z,100524.28
2023-04-18T23:14:21.497Z,100518.81
2023-04-18T23:16:48.928Z,100517.44
2023-04-18T23:19:16.090Z,100510.75
2023-04-18T23:21:43.275Z,100511.19
2023-04-18T23:24:12.185Z,100509.13
2023-04-18T23:26:40.352Z,100507.16
2023-04-18T23:29:07.506Z,100507.69
2023-04-18T23:31:35.032Z,100510.00
2023-04-18T23:34:02.165Z,100499.41
2023-04-18T23:36:29.750Z,100495.81
2023-04-18T23:38:57.291Z,100495.94
2023-04-18T23:41:24.486Z,100491.56
2023-04-18T23:43:51.613Z,100491.34
2023-04-18T23:46:19.133Z,100486.66
2023-04-18T23:48:46.261Z,100488.72
2023-04-18T23:51:13.401Z,100486.84
2023-04-18T23:53:40.913Z,100472.13
2023-04-18T23:56:08.474Z,100476.50
2023-04-18T23:58:35.703Z,100467.31
